sensor_id;sensor_type;location;lat;lon;timestamp;P1;durP1;ratioP1;P2;durP2;ratioP2
4963;SDS011;2497;47.410;9.740;2023-02-28T00:00:36;9.05;;;5.70;;
4963;SDS011;2497;47.410;9.740;2023-02-28T00:03:04;9.90;;;6.00;;
4963;SDS011;2497;47.410;9.740;2023-02-28T00:05:31;11.02;;;5.88;;
4963;SDS011;2497;47.410;9.740;2023-02-28T00:07:59;13.30;;;6.90;;
4963;SDS011;2497;47.410;9.740;2023-02-28T00:10:26;11.57;;;6.53;;
4963;SDS011;2497;47.410;9.740;2023-02-28T00:12:59;12.20;;;6.88;;
4963;SDS011;2497;47.410;9.740;2023-02-28T00:15:28;14.40;;;6.45;;
4963;SDS011;2497;47.410;9.740;2023-02-28T00:17:55;15.00;;;7.68;;
4963;SDS011;2497;47.410;9.740;2023-02-28T00:20:22;13.02;;;7.75;;
4963;SDS011;2497;47.410;9.740;2023-02-28T00:22:50;9.80;;;6.22;;
4963;SDS011;2497;47.410;9.740;2023-02-28T00:25:20;17.50;;;6.88;;
4963;SDS011;2497;47.410;9.740;2023-02-28T00:27:49;13.73;;;7.10;;
4963;SDS011;2497;47.410;9.740;2023-02-28T00:30:18;12.75;;;7.13;;
4963;SDS011;2497;47.410;9.740;2023-02-28T00:32:47;13.77;;;7.15;;
4963;SDS011;2497;47.410;9.740;2023-02-28T00:35:14;13.05;;;6.70;;
4963;SDS011;2497;47.410;9.740;2023-02-28T00:37:42;14.45;;;7.70;;
4963;SDS011;2497;47.410;9.740;2023-02-28T00:40:09;13.02;;;7.15;;
4963;SDS011;2497;47.410;9.740;2023-02-28T00:42:37;9.13;;;5.80;;
4963;SDS011;2497;47.410;9.740;2023-02-28T00:45:05;9.70;;;4.80;;
4963;SDS011;2497;47.410;9.740;2023-02-28T00:47:35;15.32;;;6.30;;
4963;SDS011;2497;47.410;9.740;2023-02-28T00:50:02;11.05;;;5.03;;
4963;SDS011;2497;47.410;9.740;2023-02-28T00:52:30;12.80;;;5.00;;
4963;SDS011;2497;47.410;9.740;2023-02-28T00:54:57;14.48;;;5.07;;
4963;SDS011;2497;47.410;9.740;2023-02-28T00:57:25;12.73;;;5.88;;
4963;SDS011;2497;47.410;9.740;2023-02-28T00:59:52;11.00;;;4.88;;
4963;SDS011;2497;47.410;9.740;2023-02-28T01:02:20;8.55;;;5.47;;
4963;SDS011;2497;47.410;9.740;2023-02-28T01:04:49;9.27;;;4.60;;
4963;SDS011;2497;47.410;9.740;2023-02-28T01:07:16;11.38;;;4.93;;
4963;SDS011;2497;47.410;9.740;2023-02-28T01:09:43;9.45;;;5.25;;
4963;SDS011;2497;47.410;9.740;2023-02-28T01:12:10;9.13;;;5.40;;
4963;SDS011;2497;47.410;9.740;2023-02-28T01:14:37;12.30;;;5.30;;
4963;SDS011;2497;47.410;9.740;2023-02-28T01:17:05;15.65;;;5.00;;
4963;SDS011;2497;47.410;9.740;2023-02-28T01:19:32;8.85;;;4.57;;
4963;SDS011;2497;47.410;9.740;2023-02-28T01:22:01;10.07;;;5.15;;
4963;SDS011;2497;47.410;9.740;2023-02-28T01:24:29;9.80;;;4.35;;
4963;SDS011;2497;47.410;9.740;2023-02-28T01:26:56;8.88;;;4.75;;
4963;SDS011;2497;47.410;9.740;2023-02-28T01:29:23;9.32;;;4.57;;
4963;SDS011;2497;47.410;9.740;2023-02-28T01:31:51;8.43;;;4.82;;
4963;SDS011;2497;47.410;9.740;2023-02-28T01:34:18;10.75;;;4.75;;
4963;SDS011;2497;47.410;9.740;2023-02-28T01:36:45;8.23;;;4.38;;
4963;SDS011;2497;47.410;9.740;2023-02-28T01:39:14;11.23;;;4.93;;
4963;SDS011;2497;47.410;9.740;2023-02-28T01:41:41;8.93;;;5.28;;
4963;SDS011;2497;47.410;9.740;2023-02-28T01:47:08;11.30;;;4.55;;
4963;SDS011;2497;47.410;9.740;2023-02-28T01:49:36;7.07;;;4.43;;
4963;SDS011;2497;47.410;9.740;2023-02-28T01:52:03;6.68;;;4.15;;
4963;SDS011;2497;47.410;9.740;2023-02-28T01:54:32;9.27;;;3.88;;
4963;SDS011;2497;47.410;9.740;2023-02-28T01:57:04;8.98;;;4.40;;
4963;SDS011;2497;47.410;9.740;2023-02-28T01:59:35;9.77;;;4.85;;
4963;SDS011;2497;47.410;9.740;2023-02-28T02:02:11;9.70;;;5.20;;
4963;SDS011;2497;47.410;9.740;2023-02-28T02:04:39;8.57;;;4.50;;
4963;SDS011;2497;47.410;9.740;2023-02-28T02:07:10;7.68;;;4.35;;
4963;SDS011;2497;47.410;9.740;2023-02-28T02:09:40;9.45;;;4.55;;
4963;SDS011;2497;47.410;9.740;2023-02-28T02:12:09;6.93;;;5.28;;
4963;SDS011;2497;47.410;9.740;2023-02-28T02:18:16;7.25;;;4.10;;
4963;SDS011;2497;47.410;9.740;2023-02-28T02:24:12;12.07;;;4.38;;
4963;SDS011;2497;47.410;9.740;2023-02-28T02:27:07;8.73;;;5.18;;
4963;SDS011;2497;47.410;9.740;2023-02-28T02:32:59;9.68;;;3.88;;
4963;SDS011;2497;47.410;9.740;2023-02-28T02:35:39;7.35;;;4.13;;
4963;SDS011;2497;47.410;9.740;2023-02-28T02:38:11;11.80;;;5.18;;
4963;SDS011;2497;47.410;9.740;2023-02-28T02:40:47;10.05;;;3.83;;
4963;SDS011;2497;47.410;9.740;2023-02-28T02:43:22;5.70;;;3.95;;
4963;SDS011;2497;47.410;9.740;2023-02-28T02:45:57;7.97;;;4.78;;
4963;SDS011;2497;47.410;9.740;2023-02-28T02:48:30;7.18;;;4.70;;
4963;SDS011;2497;47.410;9.740;2023-02-28T02:51:03;7.57;;;4.40;;
4963;SDS011;2497;47.410;9.740;2023-02-28T02:53:37;8.60;;;4.40;;
4963;SDS011;2497;47.410;9.740;2023-02-28T02:56:08;10.57;;;4.43;;
4963;SDS011;2497;47.410;9.740;2023-02-28T02:58:37;7.88;;;3.83;;
4963;SDS011;2497;47.410;9.740;2023-02-28T03:01:08;7.68;;;4.60;;
4963;SDS011;2497;47.410;9.740;2023-02-28T03:03:40;7.28;;;3.95;;
4963;SDS011;2497;47.410;9.740;2023-02-28T03:06:09;8.45;;;3.80;;
4963;SDS011;2497;47.410;9.740;2023-02-28T03:08:37;6.78;;;4.38;;
4963;SDS011;2497;47.410;9.740;2023-02-28T03:11:06;6.90;;;3.92;;
4963;SDS011;2497;47.410;9.740;2023-02-28T03:13:46;8.45;;;4.18;;
4963;SDS011;2497;47.410;9.740;2023-02-28T03:16:35;6.13;;;3.55;;
4963;SDS011;2497;47.410;9.740;2023-02-28T03:19:26;12.02;;;3.30;;
4963;SDS011;2497;47.410;9.740;2023-02-28T03:22:17;9.60;;;5.55;;
4963;SDS011;2497;47.410;9.740;2023-02-28T03:24:54;9.10;;;4.85;;
4963;SDS011;2497;47.410;9.740;2023-02-28T03:27:29;10.43;;;4.85;;
4963;SDS011;2497;47.410;9.740;2023-02-28T03:29:58;12.52;;;5.90;;
4963;SDS011;2497;47.410;9.740;2023-02-28T03:32:30;7.97;;;4.40;;
4963;SDS011;2497;47.410;9.740;2023-02-28T03:35:02;8.30;;;5.03;;
4963;SDS011;2497;47.410;9.740;2023-02-28T03:37:36;11.38;;;5.43;;
4963;SDS011;2497;47.410;9.740;2023-02-28T03:40:06;7.03;;;4.68;;
4963;SDS011;2497;47.410;9.740;2023-02-28T03:42:38;6.78;;;4.90;;
4963;SDS011;2497;47.410;9.740;2023-02-28T03:45:09;8.80;;;5.30;;
4963;SDS011;2497;47.410;9.740;2023-02-28T03:47:40;9.55;;;5.22;;
4963;SDS011;2497;47.410;9.740;2023-02-28T03:50:12;9.15;;;5.82;;
4963;SDS011;2497;47.410;9.740;2023-02-28T03:52:46;13.52;;;5.95;;
4963;SDS011;2497;47.410;9.740;2023-02-28T03:55:16;9.95;;;5.53;;
4963;SDS011;2497;47.410;9.740;2023-02-28T03:57:47;10.07;;;6.13;;
4963;SDS011;2497;47.410;9.740;2023-02-28T04:00:25;14.55;;;5.95;;
4963;SDS011;2497;47.410;9.740;2023-02-28T04:02:57;9.90;;;5.60;;
4963;SDS011;2497;47.410;9.740;2023-02-28T04:05:25;11.57;;;5.75;;
4963;SDS011;2497;47.410;9.740;2023-02-28T04:08:02;12.55;;;5.90;;
4963;SDS011;2497;47.410;9.740;2023-02-28T04:10:30;13.45;;;7.22;;
4963;SDS011;2497;47.410;9.740;2023-02-28T04:12:57;11.10;;;5.93;;
4963;SDS011;2497;47.410;9.740;2023-02-28T04:15:24;12.23;;;5.35;;
4963;SDS011;2497;47.410;9.740;2023-02-28T04:17:52;13.25;;;6.60;;
4963;SDS011;2497;47.410;9.740;2023-02-28T04:20:20;17.50;;;8.07;;
4963;SDS011;2497;47.410;9.740;2023-02-28T04:22:47;12.15;;;5.85;;
4963;SDS011;2497;47.410;9.740;2023-02-28T04:25:15;11.68;;;6.13;;
4963;SDS011;2497;47.410;9.740;2023-02-28T04:27:42;9.65;;;5.82;;
4963;SDS011;2497;47.410;9.740;2023-02-28T04:30:10;14.07;;;6.20;;
4963;SDS011;2497;47.410;9.740;2023-02-28T04:32:38;14.20;;;7.93;;
4963;SDS011;2497;47.410;9.740;2023-02-28T04:35:05;9.57;;;6.35;;
4963;SDS011;2497;47.410;9.740;2023-02-28T04:37:33;12.77;;;6.80;;
4963;SDS011;2497;47.410;9.740;2023-02-28T04:40:02;12.57;;;7.30;;
4963;SDS011;2497;47.410;9.740;2023-02-28T04:42:31;10.80;;;5.63;;
4963;SDS011;2497;47.410;9.740;2023-02-28T04:45:01;13.18;;;6.72;;
4963;SDS011;2497;47.410;9.740;2023-02-28T04:47:28;10.80;;;6.47;;
4963;SDS011;2497;47.410;9.740;2023-02-28T04:49:55;9.48;;;5.50;;
4963;SDS011;2497;47.410;9.740;2023-02-28T04:52:22;13.90;;;6.82;;
4963;SDS011;2497;47.410;9.740;2023-02-28T04:54:50;12.30;;;6.40;;
4963;SDS011;2497;47.410;9.740;2023-02-28T04:57:17;9.52;;;5.72;;
4963;SDS011;2497;47.410;9.740;2023-02-28T04:59:45;11.68;;;5.80;;
4963;SDS011;2497;47.410;9.740;2023-02-28T05:02:13;14.20;;;6.60;;
4963;SDS011;2497;47.410;9.740;2023-02-28T05:04:40;9.55;;;5.50;;
4963;SDS011;2497;47.410;9.740;2023-02-28T05:07:07;12.30;;;5.72;;
4963;SDS011;2497;47.410;9.740;2023-02-28T05:09:34;10.77;;;6.78;;
4963;SDS011;2497;47.410;9.740;2023-02-28T05:12:01;10.07;;;6.05;;
4963;SDS011;2497;47.410;9.740;2023-02-28T05:14:29;15.35;;;7.22;;
4963;SDS011;2497;47.410;9.740;2023-02-28T05:16:57;14.20;;;6.18;;
4963;SDS011;2497;47.410;9.740;2023-02-28T05:19:24;14.00;;;6.55;;
4963;SDS011;2497;47.410;9.740;2023-02-28T05:21:52;13.75;;;6.55;;
4963;SDS011;2497;47.410;9.740;2023-02-28T05:24:20;15.45;;;7.45;;
4963;SDS011;2497;47.410;9.740;2023-02-28T05:26:49;12.68;;;7.65;;
4963;SDS011;2497;47.410;9.740;2023-02-28T05:29:18;16.98;;;8.52;;
4963;SDS011;2497;47.410;9.740;2023-02-28T05:31:45;19.33;;;8.18;;
4963;SDS011;2497;47.410;9.740;2023-02-28T05:34:14;17.80;;;8.73;;
4963;SDS011;2497;47.410;9.740;2023-02-28T05:36:41;17.33;;;8.15;;
4963;SDS011;2497;47.410;9.740;2023-02-28T05:39:08;15.18;;;7.63;;
4963;SDS011;2497;47.410;9.740;2023-02-28T05:41:38;19.38;;;9.30;;
4963;SDS011;2497;47.410;9.740;2023-02-28T05:44:06;16.85;;;8.65;;
4963;SDS011;2497;47.410;9.740;2023-02-28T05:46:33;18.85;;;9.25;;
4963;SDS011;2497;47.410;9.740;2023-02-28T05:49:02;12.43;;;7.20;;
4963;SDS011;2497;47.410;9.740;2023-02-28T05:51:30;16.80;;;9.07;;
4963;SDS011;2497;47.410;9.740;2023-02-28T05:53:59;25.25;;;9.07;;
4963;SDS011;2497;47.410;9.740;2023-02-28T05:56:27;17.65;;;9.40;;
4963;SDS011;2497;47.410;9.740;2023-02-28T05:58:54;20.80;;;8.48;;
4963;SDS011;2497;47.410;9.740;2023-02-28T06:01:24;14.27;;;7.47;;
4963;SDS011;2497;47.410;9.740;2023-02-28T06:03:57;15.60;;;7.78;;
4963;SDS011;2497;47.410;9.740;2023-02-28T06:06:25;20.98;;;9.55;;
4963;SDS011;2497;47.410;9.740;2023-02-28T06:08:53;18.60;;;9.00;;
4963;SDS011;2497;47.410;9.740;2023-02-28T06:11:20;30.08;;;8.70;;
4963;SDS011;2497;47.410;9.740;2023-02-28T06:13:52;23.00;;;9.60;;
4963;SDS011;2497;47.410;9.740;2023-02-28T06:16:21;23.02;;;7.85;;
4963;SDS011;2497;47.410;9.740;2023-02-28T06:18:48;15.10;;;8.80;;
4963;SDS011;2497;47.410;9.740;2023-02-28T06:21:15;21.80;;;9.13;;
4963;SDS011;2497;47.410;9.740;2023-02-28T06:23:42;23.17;;;10.13;;
4963;SDS011;2497;47.410;9.740;2023-02-28T06:26:10;19.70;;;10.20;;
4963;SDS011;2497;47.410;9.740;2023-02-28T06:28:37;17.52;;;9.30;;
4963;SDS011;2497;47.410;9.740;2023-02-28T06:31:08;22.33;;;9.80;;
4963;SDS011;2497;47.410;9.740;2023-02-28T06:33:36;35.83;;;10.20;;
4963;SDS011;2497;47.410;9.740;2023-02-28T06:36:04;18.13;;;8.95;;
4963;SDS011;2497;47.410;9.740;2023-02-28T06:38:32;15.70;;;7.22;;
4963;SDS011;2497;47.410;9.740;2023-02-28T06:40:59;20.67;;;8.32;;
4963;SDS011;2497;47.410;9.740;2023-02-28T06:43:29;21.20;;;8.90;;
4963;SDS011;2497;47.410;9.740;2023-02-28T06:45:58;21.20;;;8.77;;
4963;SDS011;2497;47.410;9.740;2023-02-28T06:48:28;21.05;;;9.25;;
4963;SDS011;2497;47.410;9.740;2023-02-28T06:51:01;17.98;;;8.18;;
4963;SDS011;2497;47.410;9.740;2023-02-28T06:53:33;13.38;;;7.03;;
4963;SDS011;2497;47.410;9.740;2023-02-28T06:56:03;17.08;;;7.78;;
4963;SDS011;2497;47.410;9.740;2023-02-28T06:58:33;9.60;;;6.38;;
4963;SDS011;2497;47.410;9.740;2023-02-28T07:01:00;25.67;;;8.10;;
4963;SDS011;2497;47.410;9.740;2023-02-28T07:03:28;15.38;;;6.57;;
4963;SDS011;2497;47.410;9.740;2023-02-28T07:05:55;17.65;;;6.93;;
4963;SDS011;2497;47.410;9.740;2023-02-28T07:08:23;13.88;;;6.32;;
4963;SDS011;2497;47.410;9.740;2023-02-28T07:10:51;10.88;;;5.63;;
4963;SDS011;2497;47.410;9.740;2023-02-28T07:13:19;13.40;;;6.22;;
4963;SDS011;2497;47.410;9.740;2023-02-28T07:15:53;10.25;;;5.80;;
4963;SDS011;2497;47.410;9.740;2023-02-28T07:18:21;10.20;;;6.13;;
4963;SDS011;2497;47.410;9.740;2023-02-28T07:20:49;13.73;;;6.63;;
4963;SDS011;2497;47.410;9.740;2023-02-28T07:23:16;14.60;;;6.50;;
4963;SDS011;2497;47.410;9.740;2023-02-28T07:25:43;14.63;;;6.63;;
4963;SDS011;2497;47.410;9.740;2023-02-28T07:28:11;19.60;;;9.20;;
4963;SDS011;2497;47.410;9.740;2023-02-28T07:30:38;14.90;;;7.80;;
4963;SDS011;2497;47.410;9.740;2023-02-28T07:33:07;15.93;;;6.97;;
4963;SDS011;2497;47.410;9.740;2023-02-28T07:35:34;11.27;;;6.30;;
4963;SDS011;2497;47.410;9.740;2023-02-28T07:38:01;14.20;;;6.57;;
4963;SDS011;2497;47.410;9.740;2023-02-28T07:40:29;12.93;;;6.43;;
4963;SDS011;2497;47.410;9.740;2023-02-28T07:42:57;10.80;;;5.90;;
4963;SDS011;2497;47.410;9.740;2023-02-28T07:45:25;10.30;;;5.83;;
4963;SDS011;2497;47.410;9.740;2023-02-28T07:47:54;17.33;;;6.33;;
4963;SDS011;2497;47.410;9.740;2023-02-28T07:50:23;24.35;;;8.25;;
4963;SDS011;2497;47.410;9.740;2023-02-28T07:52:50;14.23;;;7.27;;
4963;SDS011;2497;47.410;9.740;2023-02-28T07:55:17;13.70;;;7.70;;
4963;SDS011;2497;47.410;9.740;2023-02-28T07:57:44;17.47;;;8.20;;
4963;SDS011;2497;47.410;9.740;2023-02-28T08:00:12;17.03;;;7.60;;
4963;SDS011;2497;47.410;9.740;2023-02-28T08:02:39;12.97;;;7.77;;
4963;SDS011;2497;47.410;9.740;2023-02-28T08:05:07;15.85;;;7.85;;
4963;SDS011;2497;47.410;9.740;2023-02-28T08:07:35;14.07;;;8.30;;
4963;SDS011;2497;47.410;9.740;2023-02-28T08:10:03;11.37;;;8.10;;
4963;SDS011;2497;47.410;9.740;2023-02-28T08:12:31;14.97;;;8.07;;
4963;SDS011;2497;47.410;9.740;2023-02-28T08:14:58;15.37;;;9.23;;
4963;SDS011;2497;47.410;9.740;2023-02-28T08:17:25;17.87;;;8.10;;
4963;SDS011;2497;47.410;9.740;2023-02-28T08:19:52;11.65;;;7.15;;
4963;SDS011;2497;47.410;9.740;2023-02-28T08:22:19;15.63;;;8.00;;
4963;SDS011;2497;47.410;9.740;2023-02-28T08:24:48;21.47;;;8.40;;
4963;SDS011;2497;47.410;9.740;2023-02-28T08:27:15;14.43;;;7.47;;
4963;SDS011;2497;47.410;9.740;2023-02-28T08:29:42;12.83;;;7.27;;
4963;SDS011;2497;47.410;9.740;2023-02-28T08:32:09;14.20;;;8.40;;
4963;SDS011;2497;47.410;9.740;2023-02-28T08:34:38;14.30;;;7.50;;
4963;SDS011;2497;47.410;9.740;2023-02-28T08:37:05;14.93;;;7.00;;
4963;SDS011;2497;47.410;9.740;2023-02-28T08:39:33;18.13;;;7.67;;
4963;SDS011;2497;47.410;9.740;2023-02-28T08:42:02;19.83;;;7.33;;
4963;SDS011;2497;47.410;9.740;2023-02-28T08:44:30;16.13;;;7.80;;
4963;SDS011;2497;47.410;9.740;2023-02-28T08:46:57;16.37;;;8.17;;
4963;SDS011;2497;47.410;9.740;2023-02-28T08:49:24;13.73;;;8.47;;
4963;SDS011;2497;47.410;9.740;2023-02-28T08:51:51;12.30;;;7.20;;
4963;SDS011;2497;47.410;9.740;2023-02-28T08:54:20;17.50;;;8.57;;
4963;SDS011;2497;47.410;9.740;2023-02-28T08:56:48;16.80;;;8.83;;
4963;SDS011;2497;47.410;9.740;2023-02-28T08:59:16;13.17;;;7.90;;
4963;SDS011;2497;47.410;9.740;2023-02-28T09:01:43;21.00;;;9.30;;
4963;SDS011;2497;47.410;9.740;2023-02-28T09:04:11;13.37;;;8.07;;
4963;SDS011;2497;47.410;9.740;2023-02-28T09:06:38;23.33;;;8.20;;
4963;SDS011;2497;47.410;9.740;2023-02-28T09:09:05;21.07;;;9.10;;
4963;SDS011;2497;47.410;9.740;2023-02-28T09:11:33;13.43;;;7.80;;
4963;SDS011;2497;47.410;9.740;2023-02-28T09:14:01;17.70;;;7.73;;
4963;SDS011;2497;47.410;9.740;2023-02-28T09:16:31;16.90;;;8.00;;
4963;SDS011;2497;47.410;9.740;2023-02-28T09:18:59;13.07;;;7.13;;
4963;SDS011;2497;47.410;9.740;2023-02-28T09:21:26;16.00;;;7.77;;
4963;SDS011;2497;47.410;9.740;2023-02-28T09:23:53;21.03;;;7.77;;
4963;SDS011;2497;47.410;9.740;2023-02-28T09:26:22;19.20;;;7.90;;
4963;SDS011;2497;47.410;9.740;2023-02-28T09:28:50;11.53;;;7.17;;
4963;SDS011;2497;47.410;9.740;2023-02-28T09:31:19;11.53;;;7.00;;
4963;SDS011;2497;47.410;9.740;2023-02-28T09:33:50;9.97;;;6.30;;
4963;SDS011;2497;47.410;9.740;2023-02-28T09:36:18;13.97;;;6.50;;
4963;SDS011;2497;47.410;9.740;2023-02-28T09:38:46;18.83;;;8.40;;
4963;SDS011;2497;47.410;9.740;2023-02-28T09:41:15;15.20;;;7.93;;
4963;SDS011;2497;47.410;9.740;2023-02-28T09:43:44;13.40;;;7.73;;
4963;SDS011;2497;47.410;9.740;2023-02-28T09:46:17;11.77;;;6.33;;
4963;SDS011;2497;47.410;9.740;2023-02-28T09:48:57;11.97;;;7.27;;
4963;SDS011;2497;47.410;9.740;2023-02-28T09:51:30;11.97;;;6.90;;
4963;SDS011;2497;47.410;9.740;2023-02-28T09:54:08;13.23;;;7.27;;
4963;SDS011;2497;47.410;9.740;2023-02-28T09:56:39;12.13;;;6.80;;
4963;SDS011;2497;47.410;9.740;2023-02-28T09:59:10;18.07;;;7.13;;
4963;SDS011;2497;47.410;9.740;2023-02-28T10:01:43;13.13;;;7.03;;
4963;SDS011;2497;47.410;9.740;2023-02-28T10:04:22;16.30;;;8.70;;
4963;SDS011;2497;47.410;9.740;2023-02-28T10:07:01;14.37;;;7.20;;
4963;SDS011;2497;47.410;9.740;2023-02-28T10:09:32;12.97;;;7.03;;
4963;SDS011;2497;47.410;9.740;2023-02-28T10:12:03;15.63;;;7.10;;
4963;SDS011;2497;47.410;9.740;2023-02-28T10:14:32;11.57;;;6.60;;
4963;SDS011;2497;47.410;9.740;2023-02-28T10:17:01;15.47;;;7.53;;
4963;SDS011;2497;47.410;9.740;2023-02-28T10:19:38;13.03;;;7.20;;
4963;SDS011;2497;47.410;9.740;2023-02-28T10:22:11;15.17;;;7.87;;
4963;SDS011;2497;47.410;9.740;2023-02-28T10:24:41;15.70;;;7.80;;
4963;SDS011;2497;47.410;9.740;2023-02-28T10:27:12;13.70;;;7.97;;
4963;SDS011;2497;47.410;9.740;2023-02-28T10:29:43;14.90;;;7.90;;
4963;SDS011;2497;47.410;9.740;2023-02-28T10:32:13;13.23;;;7.77;;
4963;SDS011;2497;47.410;9.740;2023-02-28T10:34:44;13.77;;;8.00;;
4963;SDS011;2497;47.410;9.740;2023-02-28T10:37:17;14.50;;;6.80;;
4963;SDS011;2497;47.410;9.740;2023-02-28T10:39:46;12.60;;;7.93;;
4963;SDS011;2497;47.410;9.740;2023-02-28T10:42:21;13.67;;;7.73;;
4963;SDS011;2497;47.410;9.740;2023-02-28T10:45:02;13.70;;;7.30;;
4963;SDS011;2497;47.410;9.740;2023-02-28T10:47:33;13.20;;;8.00;;
4963;SDS011;2497;47.410;9.740;2023-02-28T10:50:08;13.90;;;7.73;;
4963;SDS011;2497;47.410;9.740;2023-02-28T10:52:54;14.33;;;7.47;;
4963;SDS011;2497;47.410;9.740;2023-02-28T10:55:31;14.43;;;7.23;;
4963;SDS011;2497;47.410;9.740;2023-02-28T10:57:58;16.80;;;7.97;;
4963;SDS011;2497;47.410;9.740;2023-02-28T11:00:25;17.30;;;9.80;;
4963;SDS011;2497;47.410;9.740;2023-02-28T11:02:59;18.83;;;8.40;;
4963;SDS011;2497;47.410;9.740;2023-02-28T11:05:29;15.40;;;8.77;;
4963;SDS011;2497;47.410;9.740;2023-02-28T11:07:59;16.33;;;8.97;;
4963;SDS011;2497;47.410;9.740;2023-02-28T11:10:32;21.50;;;9.10;;
4963;SDS011;2497;47.410;9.740;2023-02-28T11:12:59;25.57;;;9.50;;
4963;SDS011;2497;47.410;9.740;2023-02-28T11:15:29;22.00;;;10.57;;
4963;SDS011;2497;47.410;9.740;2023-02-28T11:17:58;20.43;;;9.97;;
4963;SDS011;2497;47.410;9.740;2023-02-28T11:20:27;16.20;;;8.83;;
4963;SDS011;2497;47.410;9.740;2023-02-28T11:22:59;11.43;;;7.40;;
4963;SDS011;2497;47.410;9.740;2023-02-28T11:25:29;15.10;;;8.43;;
4963;SDS011;2497;47.410;9.740;2023-02-28T11:27:58;16.77;;;9.27;;
4963;SDS011;2497;47.410;9.740;2023-02-28T11:30:28;16.20;;;8.80;;
4963;SDS011;2497;47.410;9.740;2023-02-28T11:32:59;16.53;;;7.70;;
4963;SDS011;2497;47.410;9.740;2023-02-28T11:35:27;16.60;;;8.73;;
4963;SDS011;2497;47.410;9.740;2023-02-28T11:38:00;15.50;;;9.13;;
4963;SDS011;2497;47.410;9.740;2023-02-28T11:40:33;17.50;;;8.30;;
4963;SDS011;2497;47.410;9.740;2023-02-28T11:43:13;12.27;;;7.33;;
4963;SDS011;2497;47.410;9.740;2023-02-28T11:45:55;18.63;;;9.60;;
4963;SDS011;2497;47.410;9.740;2023-02-28T11:48:41;15.67;;;8.40;;
4963;SDS011;2497;47.410;9.740;2023-02-28T11:51:21;17.20;;;9.17;;
4963;SDS011;2497;47.410;9.740;2023-02-28T11:56:44;14.90;;;8.80;;
4963;SDS011;2497;47.410;9.740;2023-02-28T11:59:20;16.27;;;7.97;;
4963;SDS011;2497;47.410;9.740;2023-02-28T12:02:03;19.53;;;8.30;;
4963;SDS011;2497;47.410;9.740;2023-02-28T12:04:42;19.47;;;8.67;;
4963;SDS011;2497;47.410;9.740;2023-02-28T12:07:23;16.37;;;9.17;;
4963;SDS011;2497;47.410;9.740;2023-02-28T12:10:00;15.30;;;8.00;;
4963;SDS011;2497;47.410;9.740;2023-02-28T12:12:44;15.57;;;8.97;;
4963;SDS011;2497;47.410;9.740;2023-02-28T12:15:35;17.20;;;7.93;;
4963;SDS011;2497;47.410;9.740;2023-02-28T12:18:48;16.83;;;9.03;;
4963;SDS011;2497;47.410;9.740;2023-02-28T12:21:24;15.70;;;8.57;;
4963;SDS011;2497;47.410;9.740;2023-02-28T12:24:13;16.10;;;8.33;;
4963;SDS011;2497;47.410;9.740;2023-02-28T12:26:57;15.97;;;9.13;;
4963;SDS011;2497;47.410;9.740;2023-02-28T12:29:28;17.07;;;8.87;;
4963;SDS011;2497;47.410;9.740;2023-02-28T12:31:58;14.43;;;8.03;;
4963;SDS011;2497;47.410;9.740;2023-02-28T12:34:31;17.97;;;9.20;;
4963;SDS011;2497;47.410;9.740;2023-02-28T12:37:03;13.03;;;8.07;;
4963;SDS011;2497;47.410;9.740;2023-02-28T12:39:37;18.50;;;7.97;;
4963;SDS011;2497;47.410;9.740;2023-02-28T12:42:10;19.47;;;9.20;;
4963;SDS011;2497;47.410;9.740;2023-02-28T12:44:44;16.43;;;9.07;;
4963;SDS011;2497;47.410;9.740;2023-02-28T12:47:16;18.07;;;8.60;;
4963;SDS011;2497;47.410;9.740;2023-02-28T12:49:45;16.90;;;9.00;;
4963;SDS011;2497;47.410;9.740;2023-02-28T12:52:17;16.33;;;8.87;;
4963;SDS011;2497;47.410;9.740;2023-02-28T12:54:52;16.27;;;9.23;;
4963;SDS011;2497;47.410;9.740;2023-02-28T12:57:25;17.97;;;9.87;;
4963;SDS011;2497;47.410;9.740;2023-02-28T13:00:03;14.17;;;7.80;;
4963;SDS011;2497;47.410;9.740;2023-02-28T13:02:44;23.70;;;8.40;;
4963;SDS011;2497;47.410;9.740;2023-02-28T13:08:48;17.27;;;8.93;;
4963;SDS011;2497;47.410;9.740;2023-02-28T13:11:32;13.87;;;7.90;;
4963;SDS011;2497;47.410;9.740;2023-02-28T13:14:05;16.70;;;8.17;;
4963;SDS011;2497;47.410;9.740;2023-02-28T13:16:55;23.93;;;9.83;;
4963;SDS011;2497;47.410;9.740;2023-02-28T13:19:25;14.30;;;8.77;;
4963;SDS011;2497;47.410;9.740;2023-02-28T13:21:54;16.80;;;9.37;;
4963;SDS011;2497;47.410;9.740;2023-02-28T13:24:43;16.43;;;9.20;;
4963;SDS011;2497;47.410;9.740;2023-02-28T13:33:29;20.80;;;9.33;;
4963;SDS011;2497;47.410;9.740;2023-02-28T13:36:01;20.50;;;10.30;;
4963;SDS011;2497;47.410;9.740;2023-02-28T13:38:36;21.33;;;9.27;;
4963;SDS011;2497;47.410;9.740;2023-02-28T13:44:13;16.33;;;8.73;;
4963;SDS011;2497;47.410;9.740;2023-02-28T13:49:51;17.43;;;8.80;;
4963;SDS011;2497;47.410;9.740;2023-02-28T13:52:20;19.30;;;8.80;;
4963;SDS011;2497;47.410;9.740;2023-02-28T13:54:52;15.40;;;8.30;;
4963;SDS011;2497;47.410;9.740;2023-02-28T13:57:44;16.47;;;7.87;;
4963;SDS011;2497;47.410;9.740;2023-02-28T14:00:28;14.43;;;8.67;;
4963;SDS011;2497;47.410;9.740;2023-02-28T14:03:16;15.87;;;9.30;;
4963;SDS011;2497;47.410;9.740;2023-02-28T14:08:45;21.77;;;8.80;;
4963;SDS011;2497;47.410;9.740;2023-02-28T14:11:31;20.33;;;8.77;;
4963;SDS011;2497;47.410;9.740;2023-02-28T14:14:00;16.33;;;9.40;;
4963;SDS011;2497;47.410;9.740;2023-02-28T14:16:34;19.10;;;8.83;;
4963;SDS011;2497;47.410;9.740;2023-02-28T14:19:09;18.17;;;9.23;;
4963;SDS011;2497;47.410;9.740;2023-02-28T14:21:39;14.43;;;8.33;;
4963;SDS011;2497;47.410;9.740;2023-02-28T14:24:21;18.00;;;9.00;;
4963;SDS011;2497;47.410;9.740;2023-02-28T14:27:21;16.13;;;8.10;;
4963;SDS011;2497;47.410;9.740;2023-02-28T14:30:04;19.73;;;10.27;;
4963;SDS011;2497;47.410;9.740;2023-02-28T14:32:54;18.10;;;9.33;;
4963;SDS011;2497;47.410;9.740;2023-02-28T14:35:35;16.53;;;8.50;;
4963;SDS011;2497;47.410;9.740;2023-02-28T14:38:14;18.20;;;8.33;;
4963;SDS011;2497;47.410;9.740;2023-02-28T14:40:46;21.27;;;9.10;;
4963;SDS011;2497;47.410;9.740;2023-02-28T14:43:19;17.80;;;9.27;;
4963;SDS011;2497;47.410;9.740;2023-02-28T14:45:49;18.10;;;9.17;;
4963;SDS011;2497;47.410;9.740;2023-02-28T14:48:22;18.13;;;9.07;;
4963;SDS011;2497;47.410;9.740;2023-02-28T14:50:51;16.50;;;9.60;;
4963;SDS011;2497;47.410;9.740;2023-02-28T14:53:20;21.60;;;9.60;;
4963;SDS011;2497;47.410;9.740;2023-02-28T14:55:49;18.10;;;9.40;;
4963;SDS011;2497;47.410;9.740;2023-02-28T14:58:24;17.50;;;9.40;;
4963;SDS011;2497;47.410;9.740;2023-02-28T15:00:54;17.40;;;9.27;;
4963;SDS011;2497;47.410;9.740;2023-02-28T15:03:28;17.03;;;9.73;;
4963;SDS011;2497;47.410;9.740;2023-02-28T15:05:58;19.37;;;9.30;;
4963;SDS011;2497;47.410;9.740;2023-02-28T15:08:28;21.77;;;9.07;;
4963;SDS011;2497;47.410;9.740;2023-02-28T15:11:00;20.10;;;9.47;;
4963;SDS011;2497;47.410;9.740;2023-02-28T15:13:31;20.93;;;9.90;;
4963;SDS011;2497;47.410;9.740;2023-02-28T15:16:03;19.40;;;9.30;;
4963;SDS011;2497;47.410;9.740;2023-02-28T15:18:36;18.40;;;8.47;;
4963;SDS011;2497;47.410;9.740;2023-02-28T15:21:12;18.93;;;10.10;;
4963;SDS011;2497;47.410;9.740;2023-02-28T15:23:41;29.10;;;9.73;;
4963;SDS011;2497;47.410;9.740;2023-02-28T15:26:12;27.07;;;11.00;;
4963;SDS011;2497;47.410;9.740;2023-02-28T15:28:41;26.83;;;11.13;;
4963;SDS011;2497;47.410;9.740;2023-02-28T15:31:18;22.43;;;10.70;;
4963;SDS011;2497;47.410;9.740;2023-02-28T15:33:56;21.70;;;10.10;;
4963;SDS011;2497;47.410;9.740;2023-02-28T15:36:29;21.10;;;10.77;;
4963;SDS011;2497;47.410;9.740;2023-02-28T15:38:58;28.37;;;11.30;;
4963;SDS011;2497;47.410;9.740;2023-02-28T15:41:27;20.33;;;11.03;;
4963;SDS011;2497;47.410;9.740;2023-02-28T15:44:14;20.90;;;10.70;;
4963;SDS011;2497;47.410;9.740;2023-02-28T15:46:43;24.97;;;9.33;;
4963;SDS011;2497;47.410;9.740;2023-02-28T15:49:22;17.43;;;10.07;;
4963;SDS011;2497;47.410;9.740;2023-02-28T15:51:50;26.70;;;10.67;;
4963;SDS011;2497;47.410;9.740;2023-02-28T15:54:19;24.37;;;9.40;;
4963;SDS011;2497;47.410;9.740;2023-02-28T15:56:50;23.23;;;9.37;;
4963;SDS011;2497;47.410;9.740;2023-02-28T15:59:19;20.30;;;11.17;;
4963;SDS011;2497;47.410;9.740;2023-02-28T16:02:01;20.63;;;9.77;;